Time;durP1;ratioP1;P1;durP2;ratioP2;P2;SDS_P1;SDS_P2;PMS_P1;PMS_P2;Temp;Humidity;BMP_temperature;BMP_pressure;BME280_temperature;BME280_humidity;BME280_pressure;Samples;Min_cycle;Max_cycle;Signal;HPM_P1;HPM_P2
2022/06/25 00:00:10;;;;;;;8.40;4.90;;;;;;;20.19;51.28;99938.69;110326;1257;22851;-78
2022/06/25 00:03:09;;;;;;;7.10;4.80;;;;;;;20.14;51.46;99936.63;110416;1256;22078;-77
2022/06/25 00:06:11;;;;;;;;;;;;;;;;;;;;;
2022/06/25 00:09:18;;;;;;;7.60;4.20;;;;;;;20.08;51.72;99937.73;110185;1257;21964;-77
2022/06/25 00:15:16;;;;;;;8.60;4.70;;;;;;;20.00;52.04;99939.43;110545;1251;23169;-77
2022/06/25 00:17:51;;;;;;;11.90;5.80;;;;;;;19.95;52.04;99941.48;110803;1250;22752;-77
2022/06/25 00:20:56;;;;;;;;;;;;;;;;;;;;;
2022/06/25 00:23:58;;;;;;;8.00;4.60;;;;;;;19.86;52.51;99945.55;110322;1257;22430;-78
2022/06/25 00:26:54;;;;;;;6.00;4.30;;;;;;;19.82;52.57;99949.64;110385;1257;23922;-77
2022/06/25 00:29:52;;;;;;;5.30;4.30;;;;;;;19.78;52.74;99949.94;110377;1257;23051;-77
2022/06/25 00:32:52;;;;;;;6.50;4.50;;;;;;;19.75;52.71;99948.95;110436;1257;22131;-78
2022/06/25 00:35:53;;;;;;;9.80;8.70;;;;;;;19.68;52.90;99948.19;110402;1257;23589;-78
2022/06/25 00:38:54;;;;;;;7.20;4.30;;;;;;;19.65;53.20;99948.87;110441;1255;21974;-78
2022/06/25 00:41:36;;;;;;;6.00;4.50;;;;;;;19.63;53.42;99946.20;110282;1251;23548;-77
2022/06/25 00:44:43;;;;;;;11.70;5.70;;;;;;;19.60;53.64;99944.56;110726;1251;23036;-78
2022/06/25 00:47:38;;;;;;;;;;;;;;;;;;;;;
2022/06/25 00:51:00;;;;;;;6.70;4.90;;;;;;;19.51;53.87;99940.95;110524;1254;22980;-77
2022/06/25 00:53:43;;;;;;;;;;;;;;;;;;;;;
2022/06/25 00:57:24;;;;;;;;;;;;;;;;;;;;;
2022/06/25 01:00:33;;;;;;;;;;;;;;;;;;;;;
2022/06/25 01:03:44;;;;;;;6.40;5.00;;;;;;;19.29;54.40;99950.89;109761;1260;23039;-77
2022/06/25 01:06:47;;;;;;;14.60;7.20;;;;;;;19.27;54.64;99951.22;109080;1267;21989;-78
2022/06/25 01:09:48;;;;;;;;;;;;;;;;;;;;;
2022/06/25 01:12:26;;;;;;;8.10;6.60;;;;;;;19.32;54.74;99947.34;108814;1266;23082;-79
2022/06/25 01:15:23;;;;;;;9.70;5.00;;;;;;;19.31;54.83;99946.16;109107;1267;22160;-77
2022/06/25 01:18:00;;;;;;;13.30;6.60;;;;;;;19.30;54.96;99942.23;108873;1270;22030;-77
2022/06/25 01:21:15;;;;;;;;;;;;;;;;;;;;;
2022/06/25 01:24:40;;;;;;;6.40;5.20;;;;;;;19.19;55.08;99938.34;109824;1254;21987;-77
2022/06/25 01:27:33;;;;;;;5.80;4.60;;;;;;;19.15;55.06;99937.80;110267;1254;23663;-77
2022/06/25 01:30:19;;;;;;;5.60;4.60;;;;;;;19.13;55.18;99938.46;110650;1254;22717;-78
2022/06/25 01:33:46;;;;;;;5.70;4.90;;;;;;;19.09;55.25;99937.67;110172;1254;21968;-78
2022/06/25 01:37:18;;;;;;;;;;;;;;;;;;;;;
2022/06/25 01:40:20;;;;;;;10.40;4.50;;;;;;;19.01;55.32;99939.75;110372;1254;21992;-78
2022/06/25 01:43:51;;;;;;;4.80;4.30;;;;;;;18.99;55.37;99938.05;110574;1254;22716;-78
2022/06/25 01:47:31;;;;;;;;;;;;;;;;;;;;;
2022/06/25 01:51:03;;;;;;;10.60;4.90;;;;;;;18.95;55.83;99941.29;109243;1267;22921;-78
2022/06/25 01:54:04;;;;;;;5.10;4.60;;;;;;;18.93;55.66;99941.45;109175;1264;21980;-78
2022/06/25 01:56:42;;;;;;;8.60;6.60;;;;;;;18.89;55.68;99939.92;109026;1267;23058;-77
2022/06/25 02:00:20;;;;;;;7.20;4.80;;;;;;;18.86;55.73;99935.98;108739;1273;23183;-77
2022/06/25 02:03:26;;;;;;;8.40;4.90;;;;;;;18.76;55.83;99938.60;108815;1270;23625;-77
2022/06/25 02:06:15;;;;;;;11.00;4.60;;;;;;;18.74;56.04;99940.17;110122;1259;21965;-77
2022/06/25 02:09:22;;;;;;;7.60;5.30;;;;;;;18.74;56.08;99943.96;109990;1259;22736;-77
2022/06/25 02:12:04;;;;;;;7.50;4.70;;;;;;;18.76;56.07;99942.56;109025;1267;22263;-77
2022/06/25 02:15:19;;;;;;;;;;;;;;;;;;;;;
2022/06/25 02:18:22;;;;;;;8.60;4.20;;;;;;;18.74;56.22;99943.08;109413;1263;22746;-76
2022/06/25 02:21:16;;;;;;;8.70;4.60;;;;;;;18.71;56.28;99944.94;109776;1261;23778;-76
2022/06/25 02:24:24;;;;;;;8.90;5.90;;;;;;;18.68;56.19;99945.92;110049;1260;22683;-76
2022/06/25 02:27:48;;;;;;;8.60;5.80;;;;;;;18.61;56.48;99949.33;110082;1260;22431;-76
2022/06/25 02:34:18;;;;;;;6.10;4.30;;;;;;;18.56;56.51;99949.69;109058;1268;22709;-76
2022/06/25 02:37:23;;;;;;;;;;;;;;;;;;;;;
2022/06/25 02:40:31;;;;;;;5.90;4.80;;;;;;;18.58;56.70;99953.77;109248;1265;22836;-78
2022/06/25 02:43:46;;;;;;;10.00;4.80;;;;;;;18.59;56.78;99953.02;109484;1264;21986;-77
2022/06/25 02:47:28;;;;;;;;;;;;;;;;;;;;;
2022/06/25 02:50:44;;;;;;;7.40;4.80;;;;;;;18.55;56.89;99955.51;108877;1270;23110;-79
2022/06/25 02:53:49;;;;;;;6.60;4.70;;;;;;;18.55;56.85;99958.77;108975;1267;22003;-78
2022/06/25 03:00:37;;;;;;;8.30;4.60;;;;;;;18.52;56.95;99950.61;108294;1276;22456;-78
2022/06/25 03:04:09;;;;;;;10.60;5.60;;;;;;;18.58;57.08;99953.73;108430;1276;23855;-77
2022/06/25 03:07:44;;;;;;;;;;;;;;;;;;;;;
2022/06/25 03:10:56;;;;;;;5.40;4.90;;;;;;;18.65;57.00;99958.89;108088;1278;22003;-78
2022/06/25 03:14:08;;;;;;;10.70;5.40;;;;;;;18.66;56.98;99959.68;108273;1275;22012;-77
2022/06/25 03:17:05;;;;;;;7.80;4.80;;;;;;;18.67;56.72;99963.59;108583;1276;23025;-77
2022/06/25 03:20:14;;;;;;;6.80;5.50;;;;;;;18.65;56.51;99963.55;108345;1279;23789;-78
2022/06/25 03:23:11;;;;;;;5.90;5.30;;;;;;;18.61;56.71;99967.47;107978;1280;22010;-77
2022/06/25 03:25:58;;;;;;;7.60;4.90;;;;;;;18.60;56.68;99970.02;108239;1279;23033;-77
2022/06/25 03:29:06;;;;;;;5.70;4.60;;;;;;;18.60;56.97;99969.05;108327;1274;21995;-77
2022/06/25 03:31:41;;;;;;;6.60;4.80;;;;;;;18.64;57.14;99967.34;108662;1267;22212;-77
2022/06/25 03:34:45;;;;;;;6.70;4.40;;;;;;;18.73;57.28;99965.27;109758;1260;22018;-77
2022/06/25 03:38:31;;;;;;;8.30;5.50;;;;;;;18.80;57.08;99963.95;110291;1263;23359;-78
2022/06/25 03:41:40;;;;;;;5.90;5.10;;;;;;;18.80;56.80;99966.90;109301;1264;22001;-77
2022/06/25 03:45:02;;;;;;;6.70;5.30;;;;;;;18.78;56.89;99966.42;109344;1263;21972;-77
2022/06/25 03:47:50;;;;;;;6.50;4.70;;;;;;;18.80;56.98;99964.23;109748;1263;22422;-77
2022/06/25 03:50:28;;;;;;;11.40;5.70;;;;;;;18.83;56.72;99963.65;109527;1257;23072;-77
2022/06/25 03:53:21;;;;;;;6.30;4.80;;;;;;;18.85;56.72;99960.78;110232;1258;23745;-78
2022/06/25 03:56:34;;;;;;;5.00;4.30;;;;;;;18.84;56.68;99964.98;110307;1254;21980;-77
2022/06/25 03:59:56;;;;;;;8.60;4.70;;;;;;;18.87;56.83;99974.70;110253;1254;21963;-76
2022/06/25 04:02:56;;;;;;;6.70;4.90;;;;;;;18.97;57.07;99983.14;110741;1247;21952;-77
2022/06/25 04:06:01;;;;;;;5.80;4.90;;;;;;;19.09;56.86;99983.84;111064;1250;22041;-77
2022/06/25 04:09:03;;;;;;;8.10;4.70;;;;;;;19.16;56.58;99982.19;110907;1247;21974;-77
2022/06/25 04:12:28;;;;;;;;;;;;;;;;;;;;;
2022/06/25 04:17:01;;;;;;;;;;;;;;;;;;;;;
2022/06/25 04:21:05;;;;;;;6.50;5.10;;;;;;;19.25;56.27;99999.01;110162;1259;23702;-79
2022/06/25 04:24:27;;;;;;;;;;;;;;;;;;;;;
2022/06/25 04:30:46;;;;;;;5.20;4.70;;;;;;;19.35;55.95;100004.23;109489;1265;22750;-79
2022/06/25 04:34:14;;;;;;;9.10;5.00;;;;;;;19.40;56.01;100008.54;109743;1259;23765;-79
2022/06/25 04:37:11;;;;;;;6.80;5.30;;;;;;;19.52;56.05;100012.81;109997;1260;23049;-78
2022/06/25 04:40:31;;;;;;;5.70;4.80;;;;;;;19.68;56.08;100012.48;110124;1259;22440;-78
2022/06/25 04:44:05;;;;;;;6.40;4.80;;;;;;;19.82;55.86;100013.17;109556;1263;21979;-78
2022/06/25 04:47:09;;;;;;;8.40;4.80;;;;;;;19.97;55.69;100020.70;109438;1263;22847;-77
2022/06/25 04:50:14;;;;;;;11.30;4.80;;;;;;;20.13;55.39;100022.20;110337;1257;21983;-78
2022/06/25 04:58:32;;;;;;;;;;;;;;;;;;;;;
2022/06/25 05:01:59;;;;;;;10.70;5.00;;;;;;;20.59;54.33;100023.44;108865;1270;21989;-78
2022/06/25 05:05:03;;;;;;;6.10;5.10;;;;;;;20.74;54.04;100021.19;108988;1268;23647;-78
2022/06/25 05:07:58;;;;;;;5.10;4.30;;;;;;;20.89;53.70;100022.13;109001;1268;23387;-79
2022/06/25 05:10:56;;;;;;;5.20;4.40;;;;;;;21.04;53.22;100028.61;108731;1273;23600;-78
2022/06/25 05:13:37;;;;;;;7.70;3.80;;;;;;;21.18;52.97;100030.16;108775;1273;23793;-78
2022/06/25 05:16:14;;;;;;;6.70;4.50;;;;;;;21.32;52.49;100025.66;108900;1268;22025;-79
2022/06/25 05:19:21;;;;;;;;;;;;;;;;;;;;;
2022/06/25 05:22:58;;;;;;;;;;;;;;;;;;;;;
2022/06/25 05:26:15;;;;;;;9.80;5.70;;;;;;;21.79;51.27;100037.46;109807;1256;24400;-79
2022/06/25 05:29:58;;;;;;;6.30;4.40;;;;;;;22.01;50.96;100036.92;110211;1256;21970;-77
2022/06/25 05:33:49;;;;;;;5.80;4.10;;;;;;;22.30;50.16;100042.11;110409;1256;21987;-77
2022/06/25 05:37:57;;;;;;;6.30;4.80;;;;;;;22.61;49.62;100043.02;110177;1259;22762;-77
2022/06/25 05:41:26;;;;;;;8.10;5.10;;;;;;;22.98;48.92;100049.26;109441;1263;22192;-77
2022/06/25 05:44:37;;;;;;;8.80;5.40;;;;;;;23.32;48.47;100048.16;108869;1270;22039;-79
2022/06/25 05:48:10;;;;;;;20.90;8.10;;;;;;;23.74;47.94;100051.94;108708;1270;22036;-78
2022/06/25 05:51:07;;;;;;;6.90;4.20;;;;;;;24.15;46.92;100055.79;108599;1274;21991;-77
2022/06/25 05:53:56;;;;;;;6.40;5.80;;;;;;;24.52;46.36;100056.08;108860;1266;21997;-77
2022/06/25 05:56:44;;;;;;;8.50;4.00;;;;;;;24.95;45.62;100053.96;109376;1267;22003;-77
2022/06/25 05:59:35;;;;;;;8.60;4.50;;;;;;;25.26;44.32;100052.85;108702;1272;25078;-78
2022/06/25 06:02:25;;;;;;;8.10;4.00;;;;;;;25.56;43.55;100056.74;108818;1270;21982;-81
2022/06/25 06:05:43;;;;;;;4.80;3.20;;;;;;;25.86;42.83;100058.63;108787;1270;24417;-79
2022/06/25 06:08:53;;;;;;;10.80;4.40;;;;;;;26.17;42.51;100058.98;108535;1270;22244;-79
2022/06/25 06:11:45;;;;;;;4.80;3.50;;;;;;;26.64;42.08;100062.25;108473;1273;21990;-79
2022/06/25 06:15:12;;;;;;;;;;;;;;;;;;;;;
2022/06/25 06:18:01;;;;;;;7.30;3.90;;;;;;;27.46;39.65;100059.15;109714;1264;21992;-78
2022/06/25 06:20:36;;;;;;;8.30;3.80;;;;;;;27.65;39.12;100050.27;109456;1263;21968;-80
2022/06/25 06:23:32;;;;;;;10.30;3.60;;;;;;;27.94;38.78;100054.13;109971;1260;23018;-80
2022/06/25 06:27:01;;;;;;;4.60;3.90;;;;;;;28.17;37.91;100052.48;109822;1260;23721;-77
2022/06/25 06:30:39;;;;;;;6.80;3.80;;;;;;;28.40;37.48;100050.17;107597;1259;21982;-77
2022/06/25 06:34:23;;;;;;;;;;;;;;;;;;;;;
2022/06/25 06:37:34;;;;;;;;;;;;;;;;;;;;;
2022/06/25 06:41:05;;;;;;;;;;;;;;;;;;;;;
2022/06/25 06:44:06;;;;;;;5.60;3.50;;;;;;;29.46;35.52;100052.92;110350;1260;21981;-82
2022/06/25 06:47:40;;;;;;;7.60;3.70;;;;;;;29.70;35.50;100059.73;109940;1256;21954;-79
2022/06/25 06:50:29;;;;;;;8.80;4.50;;;;;;;29.83;34.77;100059.02;110491;1255;21969;-79
2022/06/25 06:53:34;;;;;;;6.60;3.70;;;;;;;29.97;34.93;100059.02;110767;1254;21979;-78
2022/06/25 07:00:17;;;;;;;5.50;3.50;;;;;;;30.43;33.33;100052.83;110265;1259;23641;-78
2022/06/25 07:03:18;;;;;;;6.50;3.60;;;;;;;30.44;33.24;100050.48;109981;1260;21980;-78
2022/06/25 07:06:07;;;;;;;5.40;3.40;;;;;;;30.68;33.57;100048.59;109743;1260;23043;-78
2022/06/25 07:09:19;;;;;;;5.40;3.20;;;;;;;31.03;32.64;100049.89;109457;1265;23716;-79
2022/06/25 07:12:31;;;;;;;5.60;3.10;;;;;;;31.18;31.93;100055.40;109400;1265;23604;-78
2022/06/25 07:15:20;;;;;;;7.40;3.00;;;;;;;31.35;31.81;100053.96;109742;1263;23010;-78
2022/06/25 07:18:19;;;;;;;6.00;3.30;;;;;;;31.52;31.65;100053.48;110198;1259;23027;-78
2022/06/25 07:21:08;;;;;;;4.40;3.30;;;;;;;31.75;31.56;100056.65;110145;1260;21968;-79
2022/06/25 07:24:16;;;;;;;6.00;3.40;;;;;;;32.02;31.00;100063.39;110051;1259;21976;-79
2022/06/25 07:27:48;;;;;;;;;;;;;;;;;;;;;
2022/06/25 07:31:04;;;;;;;5.40;3.20;;;;;;;32.20;30.34;100072.59;109894;1261;23130;-79
2022/06/25 07:34:34;;;;;;;;;;;;;;;;;;;;;
2022/06/25 07:38:31;;;;;;;6.60;3.10;;;;;;;32.09;29.88;100074.67;109357;1267;23183;-80
2022/06/25 07:41:56;;;;;;;;;;;;;;;;;;;;;
2022/06/25 07:44:55;;;;;;;4.20;3.20;;;;;;;32.31;30.39;100074.83;108492;1276;23094;-79
2022/06/25 07:47:56;;;;;;;8.10;3.40;;;;;;;32.31;29.49;100077.95;108676;1276;22002;-80
2022/06/25 07:52:06;;;;;;;;;;;;;;;;;;;;;
2022/06/25 07:55:40;;;;;;;4.40;3.30;;;;;;;32.53;29.77;100077.40;108844;1270;23692;-81
2022/06/25 07:59:05;;;;;;;4.10;3.20;;;;;;;32.53;29.14;100079.44;109194;1266;23709;-80
2022/06/25 08:02:56;;;;;;;5.40;3.70;;;;;;;32.39;29.56;100074.87;109120;1273;22531;-80
2022/06/25 08:06:39;;;;;;;5.80;3.30;;;;;;;32.70;29.68;100073.02;108850;1273;22085;-79
2022/06/25 08:10:12;;;;;;;;;;;;;;;;;;;;;
2022/06/25 08:14:01;;;;;;;;;;;;;;;;;;;;;
2022/06/25 08:18:08;;;;;;;5.90;3.60;;;;;;;33.35;28.68;100079.99;108722;1273;22005;-79
2022/06/25 08:21:52;;;;;;;4.20;3.20;;;;;;;33.65;28.27;100080.12;109307;1266;22076;-80
2022/06/25 08:25:15;;;;;;;6.50;3.80;;;;;;;33.81;27.65;100079.24;109081;1271;23632;-79
2022/06/25 08:28:48;;;;;;;;;;;;;;;;;;;;;
2022/06/25 08:32:34;;;;;;;;;;;;;;;;;;;;;
2022/06/25 08:36:04;;;;;;;;;;;;;;;;;;;;;
2022/06/25 08:39:28;;;;;;;5.70;3.40;;;;;;;33.74;27.57;100077.02;109333;1267;23686;-82
2022/06/25 08:42:31;;;;;;;7.80;3.60;;;;;;;33.94;27.83;100075.22;109272;1263;21985;-78
2022/06/25 08:45:21;;;;;;;6.60;3.30;;;;;;;34.10;27.01;100073.23;109652;1258;22954;-79
2022/06/25 08:48:03;;;;;;;6.20;3.20;;;;;;;34.14;27.61;100076.89;110220;1257;24371;-79
2022/06/25 08:50:53;;;;;;;4.10;2.90;;;;;;;34.47;27.45;100078.20;110714;1253;22679;-79
2022/06/25 08:53:37;;;;;;;5.70;3.30;;;;;;;34.68;26.48;100076.80;110873;1253;23689;-81
2022/06/25 08:56:15;;;;;;;6.10;3.40;;;;;;;34.77;26.56;100075.65;110880;1254;21968;-80
2022/06/25 08:59:10;;;;;;;3.30;3.00;;;;;;;34.92;26.53;100077.44;110870;1254;22158;-80
2022/06/25 09:01:45;;;;;;;5.40;3.30;;;;;;;34.98;26.04;100079.63;110798;1254;23139;-80
2022/06/25 09:04:39;;;;;;;4.60;3.00;;;;;;;35.01;25.66;100079.73;110564;1254;21953;-79
2022/06/25 09:10:55;;;;;;;7.80;3.60;;;;;;;34.61;26.07;100083.52;110954;1254;21984;-79
2022/06/25 09:14:14;;;;;;;;;;;;;;;;;;;;;
2022/06/25 09:17:16;;;;;;;7.10;3.80;;;;;;;34.16;27.26;100081.74;110795;1251;21956;-79
2022/06/25 09:20:03;;;;;;;5.80;4.10;;;;;;;34.22;27.04;100082.19;110725;1251;23045;-80
2022/06/25 09:23:19;;;;;;;8.10;3.30;;;;;;;34.13;27.19;100087.40;111139;1253;21972;-79
2022/06/25 09:26:12;;;;;;;4.00;3.30;;;;;;;33.92;27.37;100085.93;111106;1251;22758;-79
2022/06/25 09:29:11;;;;;;;5.90;3.40;;;;;;;33.73;27.60;100089.79;111126;1251;21972;-79
2022/06/25 09:31:51;;;;;;;5.20;3.30;;;;;;;33.58;27.74;100090.60;110728;1250;23027;-79
2022/06/25 09:34:41;;;;;;;7.90;3.80;;;;;;;33.60;28.21;100088.88;110939;1251;24504;-80
2022/06/25 09:37:44;;;;;;;6.30;4.20;;;;;;;33.69;27.73;100087.45;110893;1251;22990;-79
2022/06/25 09:40:17;;;;;;;7.20;3.70;;;;;;;33.70;27.75;100090.22;110767;1254;21968;-78
2022/06/25 09:43:51;;;;;;;;;;;;;;;;;;;;;
2022/06/25 09:47:03;;;;;;;5.30;3.10;;;;;;;33.53;27.62;100088.91;109146;1267;22459;-80
2022/06/25 09:50:34;;;;;;;9.30;3.50;;;;;;;33.32;27.77;100087.04;109260;1268;22149;-79
2022/06/25 09:54:02;;;;;;;7.30;3.80;;;;;;;33.13;27.96;100088.83;109157;1267;23592;-79
2022/06/25 10:01:09;;;;;;;;;;;;;;;;;;;;;
2022/06/25 10:04:48;;;;;;;;;;;;;;;;;;;;;
2022/06/25 10:08:04;;;;;;;6.10;3.70;;;;;;;33.15;28.62;100082.35;109607;1268;22011;-79
2022/06/25 10:12:12;;;;;;;5.90;3.70;;;;;;;33.24;28.69;100082.12;109762;1270;21984;-79
2022/06/25 10:16:06;;;;;;;6.50;3.60;;;;;;;33.13;28.48;100081.88;109693;1267;21987;-79
2022/06/25 10:19:35;;;;;;;5.30;3.80;;;;;;;33.00;28.47;100082.13;109016;1276;23250;-80
2022/06/25 10:22:42;;;;;;;7.70;3.60;;;;;;;32.95;28.58;100084.85;108606;1273;21973;-79
2022/06/25 10:26:18;;;;;;;5.10;3.50;;;;;;;32.90;28.64;100082.46;108975;1273;23088;-80
2022/06/25 10:29:45;;;;;;;7.80;3.70;;;;;;;32.78;28.78;100080.11;109080;1270;22356;-80
2022/06/25 10:33:15;;;;;;;4.90;3.40;;;;;;;32.58;29.11;100076.63;109300;1270;21999;-80
2022/06/25 10:37:16;;;;;;;;;;;;;;;;;;;;;
2022/06/25 10:42:58;;;;;;;6.30;3.40;;;;;;;32.47;29.34;100079.66;108492;1279;22098;-79
2022/06/25 10:44:30;;;;;;;;;;;;;;;;;;;;;
2022/06/25 10:47:10;;;;;;;7.30;3.50;;;;;;;32.30;29.65;100077.68;108023;1286;22107;-79
2022/06/25 10:50:35;;;;;;;;;;;;;;;;;;;;;
2022/06/25 10:53:54;;;;;;;5.20;2.90;;;;;;;31.82;29.65;100086.16;107828;1284;23746;-78
2022/06/25 10:57:08;;;;;;;;;;;;;;;;;;;;;
2022/06/25 11:01:03;;;;;;;7.90;3.00;;;;;;;31.66;30.71;100085.59;109783;1262;24471;-78
2022/06/25 11:09:02;;;;;;;;;;;;;;;;;;;;;
2022/06/25 11:12:34;;;;;;;6.70;3.40;;;;;;;31.06;31.13;100085.45;108357;1279;23142;-79
2022/06/25 11:17:02;;;;;;;;;;;;;;;;;;;;;
2022/06/25 11:24:31;;;;;;;6.10;3.20;;;;;;;30.65;32.29;100084.75;108449;1279;22123;-79
2022/06/25 11:30:14;;;;;;;3.50;2.50;;;;;;;30.67;32.43;100080.84;108219;1279;22643;-79
2022/06/25 11:32:45;;;;;;;7.90;3.20;;;;;;;30.63;32.14;100077.05;108372;1279;21993;-78
2022/06/25 11:35:18;;;;;;;4.90;2.70;;;;;;;30.58;32.21;100076.58;108158;1280;22122;-80
2022/06/25 11:37:56;;;;;;;5.30;2.90;;;;;;;30.60;32.42;100077.24;108349;1276;24457;-79
2022/06/25 11:40:30;;;;;;;5.90;3.40;;;;;;;30.66;32.53;100079.05;108862;1270;23657;-79
2022/06/25 11:43:36;;;;;;;5.80;3.40;;;;;;;30.67;31.62;100080.99;109490;1264;22026;-79
2022/06/25 11:46:22;;;;;;;7.50;3.00;;;;;;;30.60;31.58;100076.56;109251;1264;22184;-79
2022/06/25 11:48:57;;;;;;;3.80;3.20;;;;;;;30.62;31.65;100074.63;109670;1257;23054;-79
2022/06/25 11:51:32;;;;;;;4.40;2.90;;;;;;;30.63;31.94;100070.63;109756;1257;21975;-79
2022/06/25 11:54:28;;;;;;;4.00;3.10;;;;;;;30.62;32.06;100071.14;109439;1260;21970;-80
2022/06/25 11:57:08;;;;;;;7.30;2.80;;;;;;;30.59;31.80;100076.56;110117;1257;21971;-81
2022/06/25 11:59:55;;;;;;;3.70;2.60;;;;;;;30.47;31.55;100074.70;110325;1257;21971;-79
2022/06/25 12:02:39;;;;;;;6.20;3.00;;;;;;;30.37;31.85;100071.02;110330;1257;22199;-79
2022/06/25 12:05:30;;;;;;;5.70;3.30;;;;;;;30.37;32.21;100069.46;110152;1260;21975;-80
2022/06/25 12:08:21;;;;;;;5.40;2.60;;;;;;;30.45;32.13;100070.98;109993;1257;22076;-80
2022/06/25 12:11:21;;;;;;;;;;;;;;;;;;;;;
2022/06/25 12:14:16;;;;;;;4.50;3.20;;;;;;;30.26;31.19;100074.55;109931;1262;21972;-81
2022/06/25 12:16:52;;;;;;;4.50;2.90;;;;;;;30.17;31.26;100074.46;108936;1267;23065;-79
2022/06/25 12:19:54;;;;;;;3.90;3.50;;;;;;;30.17;31.25;100072.60;108745;1270;22105;-79
2022/06/25 12:22:56;;;;;;;5.40;2.60;;;;;;;30.21;31.28;100070.58;108857;1270;23609;-80
2022/06/25 12:25:46;;;;;;;7.20;3.50;;;;;;;30.19;30.72;100072.41;109048;1271;22311;-80
2022/06/25 12:28:44;;;;;;;5.50;2.80;;;;;;;30.18;30.74;100068.94;108582;1274;22877;-80
2022/06/25 12:31:33;;;;;;;4.00;2.70;;;;;;;30.22;31.14;100069.63;108772;1273;22795;-79
2022/06/25 12:34:09;;;;;;;5.20;2.40;;;;;;;30.27;31.41;100064.59;108664;1273;22277;-80
2022/06/25 12:37:02;;;;;;;3.50;2.70;;;;;;;30.27;31.41;100068.64;108577;1274;22016;-79
2022/06/25 12:39:49;;;;;;;4.80;2.50;;;;;;;30.25;31.46;100079.17;108554;1274;22061;-79
2022/06/25 12:42:20;;;;;;;3.60;2.70;;;;;;;30.18;31.25;100082.59;108764;1270;23030;-79
2022/06/25 12:45:20;;;;;;;6.40;2.60;;;;;;;30.11;31.31;100077.10;109194;1267;24477;-79
2022/06/25 12:47:58;;;;;;;4.90;2.60;;;;;;;30.14;31.30;100073.33;109837;1262;22404;-84
2022/06/25 12:50:40;;;;;;;4.40;2.40;;;;;;;30.17;31.21;100073.27;109868;1261;21977;-79
2022/06/25 12:53:34;;;;;;;;;;;;;;;;;;;;;
2022/06/25 12:56:55;;;;;;;6.40;2.60;;;;;;;30.26;31.23;100069.02;110333;1256;21965;-79
2022/06/25 12:59:29;;;;;;;7.20;2.50;;;;;;;30.31;31.05;100065.73;110052;1256;21945;-79
2022/06/25 13:02:08;;;;;;;4.90;2.50;;;;;;;30.33;30.67;100061.07;110109;1256;22020;-79
2022/06/25 13:04:42;;;;;;;5.90;2.70;;;;;;;30.30;30.57;100061.02;110178;1256;22031;-80
2022/06/25 13:07:31;;;;;;;6.80;2.60;;;;;;;30.27;30.96;100062.23;109910;1261;22094;-79
2022/06/25 13:10:32;;;;;;;3.80;2.90;;;;;;;30.34;31.22;100061.15;109585;1259;22177;-79
2022/06/25 13:13:18;;;;;;;4.80;2.40;;;;;;;30.45;31.19;100064.61;109778;1260;22070;-79
2022/06/25 13:15:56;;;;;;;3.60;2.60;;;;;;;30.51;31.09;100069.48;109259;1264;23101;-79
2022/06/25 13:18:58;;;;;;;4.00;2.70;;;;;;;30.51;31.13;100068.19;109238;1265;23074;-79
2022/06/25 13:21:50;;;;;;;2.60;2.40;;;;;;;30.52;31.09;100072.56;109303;1264;22688;-79
2022/06/25 13:24:33;;;;;;;6.40;2.40;;;;;;;30.51;30.49;100072.00;109298;1263;23588;-80
2022/06/25 13:27:09;;;;;;;6.70;2.50;;;;;;;30.46;30.53;100066.87;109647;1260;21975;-80
2022/06/25 13:29:49;;;;;;;3.10;2.60;;;;;;;30.49;30.51;100073.34;109245;1267;23657;-80
2022/06/25 13:32:38;;;;;;;6.10;2.40;;;;;;;30.52;30.24;100073.88;109435;1267;21983;-79
2022/06/25 13:35:19;;;;;;;3.80;2.10;;;;;;;30.48;30.00;100078.33;109613;1262;22756;-78
2022/06/25 13:37:58;;;;;;;4.40;2.20;;;;;;;30.42;29.64;100077.54;108931;1270;22316;-79
2022/06/25 13:40:59;;;;;;;5.20;2.60;;;;;;;30.35;29.36;100072.02;108851;1273;23654;-79
2022/06/25 13:43:43;;;;;;;5.20;2.40;;;;;;;30.34;29.27;100072.11;108674;1273;23202;-80
2022/06/25 13:46:24;;;;;;;5.00;2.30;;;;;;;30.36;29.77;100072.61;108566;1277;23066;-79
2022/06/25 13:49:27;;;;;;;4.40;2.60;;;;;;;30.29;29.66;100073.95;108386;1276;22904;-79
2022/06/25 13:52:31;;;;;;;;;;;;;;;;;;;;;
2022/06/25 13:55:19;;;;;;;4.00;2.50;;;;;;;30.15;30.08;100073.36;108866;1267;23040;-79
2022/06/25 13:58:14;;;;;;;5.10;2.50;;;;;;;30.14;29.73;100076.86;108844;1270;21958;-80
2022/06/25 14:01:29;;;;;;;5.00;2.30;;;;;;;30.15;29.67;100076.48;108881;1270;22347;-80
2022/06/25 14:04:30;;;;;;;5.60;2.90;;;;;;;30.07;29.87;100072.16;108813;1270;21987;-78
2022/06/25 14:07:27;;;;;;;8.40;2.90;;;;;;;30.04;30.17;100063.90;108705;1270;22806;-79
2022/06/25 14:10:02;;;;;;;3.70;2.10;;;;;;;30.07;30.43;100063.87;108418;1272;21991;-79
2022/06/25 14:12:46;;;;;;;3.50;2.50;;;;;;;30.11;30.14;100057.85;108638;1268;22764;-79
2022/06/25 14:15:47;;;;;;;6.00;2.30;;;;;;;30.13;30.09;100055.64;109072;1263;22011;-79
2022/06/25 14:18:25;;;;;;;4.20;2.30;;;;;;;30.18;30.24;100057.63;108905;1270;24317;-79
2022/06/25 14:21:16;;;;;;;5.10;2.80;;;;;;;30.24;30.05;100056.56;108923;1268;21989;-79
2022/06/25 14:27:50;;;;;;;3.20;2.30;;;;;;;30.32;29.35;100058.95;109072;1263;23834;-79
2022/06/25 14:30:42;;;;;;;6.30;1.90;;;;;;;30.40;29.42;100056.16;109541;1261;23729;-80
2022/06/25 14:33:31;;;;;;;4.60;2.50;;;;;;;30.50;29.31;100056.09;109867;1260;23105;-79
2022/06/25 14:45:03;;;;;;;4.90;1.90;;;;;;;30.74;26.60;100056.32;109196;1267;22114;-79
2022/06/25 14:47:56;;;;;;;2.10;1.80;;;;;;;30.78;26.51;100055.64;109259;1267;21984;-78
2022/06/25 14:50:46;;;;;;;3.70;2.40;;;;;;;30.85;26.38;100054.63;108921;1267;22014;-79
2022/06/25 14:53:26;;;;;;;2.30;1.80;;;;;;;30.93;26.36;100052.36;109241;1266;21983;-81
2022/06/25 14:56:33;;;;;;;6.00;2.60;;;;;;;30.93;26.46;100047.91;109427;1262;23618;-83
2022/06/25 14:59:26;;;;;;;4.20;3.20;;;;;;;30.97;27.10;100043.51;109198;1267;22579;-82
2022/06/25 15:02:47;;;;;;;2.00;1.50;;;;;;;31.00;27.02;100045.48;109194;1263;21971;-84
2022/06/25 15:05:49;;;;;;;;;;;;;;;;;;;;;
2022/06/25 15:08:34;;;;;;;2.40;2.00;;;;;;;30.94;26.60;100044.55;109497;1261;24380;-82
2022/06/25 15:11:15;;;;;;;5.90;2.20;;;;;;;30.93;26.69;100044.89;109610;1262;23013;-83
2022/06/25 15:14:01;;;;;;;7.10;2.70;;;;;;;30.89;26.58;100046.89;109594;1263;24198;-83
2022/06/25 15:16:46;;;;;;;;;;;;;;;30.81;26.39;100048.54;109652;1260;23519;-82
2022/06/25 15:19:33;;;;;;;2.50;2.00;;;;;;;30.70;26.52;100043.08;109613;1262;23056;-82
2022/06/25 15:22:40;;;;;;;3.10;2.00;;;;;;;30.75;26.63;100041.88;109709;1261;22204;-83
2022/06/25 15:25:46;;;;;;;4.50;2.10;;;;;;;30.76;26.54;100041.70;110509;1257;21994;-82
2022/06/25 15:28:55;;;;;;;3.90;2.30;;;;;;;30.74;26.63;100041.04;110290;1258;21997;-82
2022/06/25 15:31:56;;;;;;;4.70;2.40;;;;;;;30.73;26.24;100037.61;111003;1250;21960;-82
2022/06/25 15:34:58;;;;;;;5.00;2.20;;;;;;;30.75;26.23;100038.17;111101;1250;21960;-83
2022/06/25 15:38:07;;;;;;;;;;;;;;;;;;;;;
2022/06/25 15:40:55;;;;;;;5.30;2.90;;;;;;;30.76;26.02;100037.05;110623;1254;21963;-81
2022/06/25 15:43:46;;;;;;;4.00;1.70;;;;;;;30.74;26.09;100036.25;110125;1260;21970;-82
2022/06/25 15:46:38;;;;;;;;;;;;;;;;;;;;;
2022/06/25 15:49:33;;;;;;;5.60;2.10;;;;;;;30.58;25.85;100029.41;110086;1260;21942;-82
2022/06/25 15:52:28;;;;;;;3.60;2.10;;;;;;;30.60;26.06;100024.52;109448;1267;23615;-82
2022/06/25 15:55:27;;;;;;;6.10;5.50;;;;;;;30.60;25.85;100021.86;109361;1263;22157;-82
2022/06/25 15:58:15;;;;;;;8.40;3.20;;;;;;;30.55;25.67;100019.29;109686;1260;22278;-83
2022/06/25 16:00:59;;;;;;;7.20;2.20;;;;;;;30.53;25.67;100017.66;109555;1260;22592;-82
2022/06/25 16:04:02;;;;;;;4.90;2.00;;;;;;;30.52;25.84;100017.79;109446;1263;22413;-83
2022/06/25 16:07:04;;;;;;;;;;;;;;;;;;;;;
2022/06/25 16:10:24;;;;;;;;;;;;;;;;;;;;;
2022/06/25 16:13:44;;;;;;;4.00;1.50;;;;;;;30.57;25.92;100016.09;110022;1260;23728;-83
2022/06/25 16:16:29;;;;;;;2.10;1.60;;;;;;;30.58;25.79;100015.15;110149;1260;22437;-82
2022/06/25 16:19:23;;;;;;;6.60;4.40;;;;;;;30.57;25.87;100017.61;109958;1260;22005;-83
2022/06/25 16:22:15;;;;;;;;;;;;;;;;;;;;;
2022/06/25 16:25:08;;;;;;;3.20;2.00;;;;;;;30.57;26.20;100017.60;109590;1263;23598;-83
2022/06/25 16:27:57;;;;;;;4.20;3.40;;;;;;;30.59;26.16;100017.72;109603;1261;23063;-83
2022/06/25 16:31:04;;;;;;;;;;;;;;;;;;;;;
2022/06/25 16:34:22;;;;;;;4.10;2.20;;;;;;;30.55;25.95;100026.66;109677;1262;23768;-83